Time;durP1;ratioP1;P1;durP2;ratioP2;P2;SDS_P1;SDS_P2;PMS_P1;PMS_P2;Temp;Humidity;BMP_temperature;BMP_pressure;BME280_temperature;BME280_humidity;BME280_pressure;Samples;Min_cycle;Max_cycle;Signal;HPM_P1;HPM_P2
2024/02/07 00:01:28;;;;;;;1.70;0.15;;;6.50;99.90;;;;;;4898903;29;20052;-84
2024/02/07 00:03:56;;;;;;;2.53;0.20;;;6.40;99.90;;;;;;4867327;29;20052;-81
2024/02/07 00:06:24;;;;;;;1.35;0.20;;;6.40;99.90;;;;;;4883070;29;20052;-82
2024/02/07 00:08:51;;;;;;;1.55;0.20;;;6.40;99.90;;;;;;4856895;29;20044;-81
2024/02/07 00:11:18;;;;;;;1.92;0.20;;;6.50;99.90;;;;;;4897933;29;20064;-81
2024/02/07 00:13:45;;;;;;;1.75;0.10;;;6.50;99.90;;;;;;4882054;29;20831;-82
2024/02/07 00:16:12;;;;;;;1.83;0.15;;;6.60;99.90;;;;;;4882181;29;20045;-82
2024/02/07 00:18:40;;;;;;;0.88;0.10;;;6.70;99.90;;;;;;4885327;29;20052;-82
2024/02/07 00:21:08;;;;;;;2.67;0.57;;;6.60;99.90;;;;;;4882271;29;20046;-83
2024/02/07 00:23:35;;;;;;;1.88;0.38;;;6.60;99.90;;;;;;4897754;29;20052;-80
2024/02/07 00:26:03;;;;;;;4.90;0.25;;;6.60;99.90;;;;;;4881674;29;20052;-78
2024/02/07 00:28:30;;;;;;;0.82;0.20;;;6.50;99.90;;;;;;4896995;29;20470;-78
2024/02/07 00:30:57;;;;;;;2.47;0.10;;;6.60;99.90;;;;;;4898157;29;20112;-78
2024/02/07 00:33:24;;;;;;;0.95;0.10;;;6.70;99.90;;;;;;4882891;29;20044;-85
2024/02/07 00:35:51;;;;;;;0.93;0.20;;;6.70;99.90;;;;;;4867872;29;20087;-85
2024/02/07 00:38:18;;;;;;;0.45;0.10;;;6.80;99.90;;;;;;4882989;29;20055;-86
2024/02/07 00:40:45;;;;;;;0.45;0.10;;;6.80;99.90;;;;;;4882893;29;20482;-86
2024/02/07 00:43:14;;;;;;;0.70;0.10;;;6.70;99.90;;;;;;4882902;29;20455;-86
2024/02/07 00:45:42;;;;;;;0.20;0.08;;;6.80;99.90;;;;;;4883171;29;20450;-85
2024/02/07 00:48:09;;;;;;;0.20;0.10;;;6.80;99.90;;;;;;4883432;29;20048;-86
2024/02/07 00:50:37;;;;;;;1.45;0.13;;;6.80;99.90;;;;;;4883384;29;20044;-86
2024/02/07 00:53:04;;;;;;;1.13;0.10;;;6.70;99.90;;;;;;4892418;29;20052;-86
2024/02/07 00:55:34;;;;;;;2.25;0.20;;;6.70;99.90;;;;;;4882987;29;20103;-86
2024/02/07 00:58:01;;;;;;;2.42;0.10;;;6.60;99.90;;;;;;4868035;29;20044;-86
2024/02/07 01:00:28;;;;;;;0.70;0.10;;;6.60;99.90;;;;;;4880148;29;20041;-86
2024/02/07 01:02:55;;;;;;;1.58;0.10;;;6.60;99.90;;;;;;4883160;29;20044;-86
2024/02/07 01:05:22;;;;;;;1.33;0.10;;;6.60;99.90;;;;;;4883263;29;20053;-86
2024/02/07 01:07:49;;;;;;;0.77;0.10;;;6.60;99.90;;;;;;4868016;29;20549;-86
2024/02/07 01:10:16;;;;;;;0.45;0.10;;;6.60;99.90;;;;;;4867315;29;20074;-86
2024/02/07 01:12:43;;;;;;;3.50;0.30;;;6.60;99.90;;;;;;4882773;29;20049;-86
2024/02/07 01:15:10;;;;;;;1.00;0.10;;;6.60;99.90;;;;;;4879771;29;20049;-87
2024/02/07 01:17:38;;;;;;;1.02;0.10;;;6.60;99.90;;;;;;4888138;29;20052;-87
2024/02/07 01:20:09;;;;;;;1.20;0.10;;;6.60;99.90;;;;;;4873437;29;20049;-86
2024/02/07 01:22:37;;;;;;;1.02;0.55;;;6.50;99.90;;;;;;4879568;29;20065;-87
2024/02/07 01:25:06;;;;;;;1.52;0.15;;;6.50;99.90;;;;;;4868884;29;20047;-86
2024/02/07 01:27:33;;;;;;;0.47;0.05;;;6.50;99.90;;;;;;4883621;29;20490;-79
2024/02/07 01:30:01;;;;;;;0.30;0.10;;;6.50;99.90;;;;;;4881252;29;20074;-80
2024/02/07 01:32:28;;;;;;;0.98;0.10;;;6.50;99.90;;;;;;4881433;29;20096;-79
2024/02/07 01:34:55;;;;;;;1.73;0.30;;;6.50;99.90;;;;;;4896677;29;20520;-79
2024/02/07 01:37:22;;;;;;;1.67;0.10;;;6.60;99.90;;;;;;4881893;29;20045;-79
2024/02/07 01:39:49;;;;;;;0.90;0.10;;;6.50;99.90;;;;;;4878044;29;20606;-79
2024/02/07 01:42:16;;;;;;;2.80;0.20;;;6.50;99.90;;;;;;4877979;29;20520;-79
2024/02/07 01:44:43;;;;;;;0.60;0.10;;;6.40;99.90;;;;;;4878023;29;20471;-79
2024/02/07 01:47:13;;;;;;;0.30;0.10;;;6.40;99.90;;;;;;4896409;29;20114;-79
2024/02/07 01:49:50;;;;;;;0.95;0.10;;;6.50;99.90;;;;;;4877622;29;20057;-78
2024/02/07 01:52:21;;;;;;;0.55;0.00;;;6.50;99.90;;;;;;4895450;29;20059;-80
2024/02/07 01:54:50;;;;;;;1.23;0.20;;;6.40;99.90;;;;;;4898117;29;20112;-79
2024/02/07 01:57:17;;;;;;;2.40;0.28;;;6.40;99.90;;;;;;4865806;29;20490;-80
2024/02/07 01:59:45;;;;;;;2.42;0.13;;;6.30;99.90;;;;;;4890608;29;20044;-80
2024/02/07 02:02:12;;;;;;;2.00;0.10;;;6.30;99.90;;;;;;4884209;29;20056;-80
2024/02/07 02:04:42;;;;;;;1.85;0.30;;;6.30;99.90;;;;;;4884307;29;20060;-79
2024/02/07 02:07:09;;;;;;;2.30;0.20;;;6.30;99.90;;;;;;4884483;29;20514;-79
2024/02/07 02:09:36;;;;;;;0.75;0.20;;;6.20;99.90;;;;;;4884005;29;20442;-79
2024/02/07 02:12:04;;;;;;;0.88;0.13;;;6.20;99.90;;;;;;4883840;29;20059;-80
2024/02/07 02:14:32;;;;;;;4.35;0.45;;;6.20;99.90;;;;;;4884036;29;20053;-80
2024/02/07 02:17:02;;;;;;;2.92;0.50;;;6.10;99.90;;;;;;4899377;29;20253;-79
2024/02/07 02:19:29;;;;;;;3.30;0.40;;;6.00;99.90;;;;;;4884121;29;20063;-79
2024/02/07 02:22:22;;;;;;;2.85;0.50;;;6.00;99.90;;;;;;4865347;29;20498;-79
2024/02/07 02:25:07;;;;;;;2.08;0.32;;;6.00;99.90;;;;;;4886794;29;20466;-80
2024/02/07 02:28:02;;;;;;;2.72;0.32;;;6.00;99.90;;;;;;4894873;29;20048;-79
2024/02/07 02:30:33;;;;;;;1.15;0.15;;;6.00;99.90;;;;;;4877841;29;20049;-79
2024/02/07 02:33:08;;;;;;;2.00;0.20;;;6.00;99.90;;;;;;4881121;29;20121;-79
2024/02/07 02:35:40;;;;;;;5.25;0.20;;;6.00;99.90;;;;;;4887749;29;20136;-79
2024/02/07 02:38:07;;;;;;;4.50;0.40;;;5.90;99.90;;;;;;4883521;29;20048;-80
2024/02/07 02:40:34;;;;;;;2.55;0.55;;;5.90;99.90;;;;;;4865601;29;20048;-79
2024/02/07 02:43:02;;;;;;;3.97;0.40;;;5.90;99.90;;;;;;4899392;29;20135;-79
2024/02/07 02:45:29;;;;;;;0.20;0.10;;;5.90;99.90;;;;;;4883580;29;20413;-79
2024/02/07 02:47:56;;;;;;;1.42;0.20;;;5.90;99.90;;;;;;4867746;29;20053;-78
2024/02/07 02:50:25;;;;;;;2.20;0.22;;;5.90;99.90;;;;;;4880551;29;20064;-79
2024/02/07 02:52:54;;;;;;;1.25;0.10;;;5.90;99.90;;;;;;4874131;29;20056;-80
2024/02/07 02:55:22;;;;;;;1.70;0.40;;;6.00;99.90;;;;;;4878571;29;20045;-79
2024/02/07 02:57:50;;;;;;;5.60;0.38;;;6.00;99.90;;;;;;4880091;29;20113;-79
2024/02/07 03:00:20;;;;;;;3.75;0.35;;;5.90;99.90;;;;;;4893534;29;20095;-79
2024/02/07 03:02:47;;;;;;;1.05;0.30;;;5.80;99.90;;;;;;4883606;29;20048;-79
2024/02/07 03:10:46;;;;;;;2.83;0.60;;;5.50;99.90;;;;;;4898334;29;20063;-78
2024/02/07 03:13:14;;;;;;;3.38;0.40;;;5.30;99.90;;;;;;4883020;29;20057;-79
2024/02/07 03:15:41;;;;;;;2.58;0.20;;;5.30;99.90;;;;;;4880655;29;20052;-78
2024/02/07 03:18:08;;;;;;;1.83;0.20;;;5.20;99.90;;;;;;4879449;29;20052;-79
2024/02/07 03:20:35;;;;;;;1.95;0.30;;;5.30;99.90;;;;;;4898423;29;20044;-79
2024/02/07 03:23:05;;;;;;;3.22;0.40;;;5.30;99.90;;;;;;4898133;29;20104;-79
2024/02/07 03:25:33;;;;;;;1.00;0.35;;;5.30;99.90;;;;;;4898100;29;20053;-79
2024/02/07 03:28:02;;;;;;;1.10;0.30;;;5.30;99.90;;;;;;4882736;29;20505;-78
2024/02/07 03:30:29;;;;;;;3.10;0.30;;;5.30;99.90;;;;;;4898761;29;20052;-79
2024/02/07 03:32:56;;;;;;;1.13;0.57;;;5.30;99.90;;;;;;4882283;29;20053;-79
2024/02/07 03:35:23;;;;;;;2.20;0.30;;;5.30;99.90;;;;;;4897890;29;20123;-78
2024/02/07 03:37:50;;;;;;;1.23;0.20;;;5.30;99.90;;;;;;4882276;29;20053;-79
2024/02/07 03:40:18;;;;;;;1.60;0.20;;;5.30;99.90;;;;;;4882609;29;20136;-78
2024/02/07 03:42:46;;;;;;;1.48;0.20;;;5.20;99.90;;;;;;4882273;29;20536;-78
2024/02/07 03:45:17;;;;;;;1.48;0.20;;;5.10;99.90;;;;;;4881482;29;20132;-79
2024/02/07 03:47:44;;;;;;;0.98;0.10;;;5.10;99.90;;;;;;4882331;29;20084;-79
2024/02/07 03:50:12;;;;;;;1.00;0.22;;;5.10;99.90;;;;;;4880222;29;20048;-79
2024/02/07 03:52:42;;;;;;;1.00;0.10;;;5.10;99.90;;;;;;4878941;29;20517;-79
2024/02/07 03:55:12;;;;;;;1.92;0.15;;;5.00;99.90;;;;;;4892514;29;20052;-78
2024/02/07 03:57:43;;;;;;;3.30;0.25;;;5.00;99.90;;;;;;4897527;29;20104;-79
2024/02/07 04:00:14;;;;;;;1.15;0.10;;;5.00;99.90;;;;;;4882156;29;20053;-79
2024/02/07 04:02:47;;;;;;;2.20;0.20;;;5.00;99.90;;;;;;4888239;29;20044;-79
2024/02/07 04:05:18;;;;;;;1.42;0.65;;;4.90;99.90;;;;;;4897594;29;20068;-79
2024/02/07 04:07:45;;;;;;;1.25;0.10;;;4.90;99.90;;;;;;4878939;29;20136;-79
2024/02/07 04:10:13;;;;;;;0.93;0.20;;;5.00;99.90;;;;;;4875081;29;20052;-78
2024/02/07 05:16:14;;;;;;;0.82;0.17;;;5.00;99.90;;;;;;4909100;29;20047;-78
2024/02/07 05:18:41;;;;;;;1.45;0.22;;;5.10;99.90;;;;;;4899542;29;20206;-78
2024/02/07 05:21:12;;;;;;;2.67;0.30;;;5.10;99.90;;;;;;4866394;29;20491;-77
2024/02/07 05:23:40;;;;;;;2.63;0.52;;;5.10;99.90;;;;;;4896774;29;20064;-77
2024/02/07 05:26:11;;;;;;;2.33;0.32;;;5.00;99.90;;;;;;4881641;29;20071;-78
2024/02/07 05:28:44;;;;;;;4.18;0.43;;;5.00;99.90;;;;;;4897077;29;20048;-77
2024/02/07 05:31:11;;;;;;;3.63;0.35;;;5.00;99.90;;;;;;4885296;29;20052;-78
2024/02/07 05:33:39;;;;;;;1.58;0.20;;;5.00;99.90;;;;;;4900155;29;20049;-77
2024/02/07 05:36:08;;;;;;;5.57;0.50;;;5.00;99.90;;;;;;4884596;29;20058;-77
2024/02/07 05:38:35;;;;;;;1.55;0.32;;;5.00;99.90;;;;;;4900129;29;20543;-77
2024/02/07 05:41:02;;;;;;;2.05;0.30;;;5.00;99.90;;;;;;4884548;29;20405;-77
2024/02/07 05:43:29;;;;;;;2.78;0.17;;;5.00;99.90;;;;;;4869087;29;20052;-77
2024/02/07 05:45:56;;;;;;;1.98;0.30;;;5.00;99.90;;;;;;4881270;29;20435;-77
2024/02/07 05:48:23;;;;;;;1.00;0.22;;;5.00;99.90;;;;;;4877781;29;20498;-77
2024/02/07 05:50:50;;;;;;;1.73;0.30;;;5.00;99.90;;;;;;4900176;29;20052;-77
2024/02/07 05:53:17;;;;;;;1.42;0.30;;;5.00;99.90;;;;;;4881199;29;20073;-77
2024/02/07 05:55:44;;;;;;;4.38;0.30;;;5.00;99.90;;;;;;4899412;29;20104;-78
2024/02/07 05:58:12;;;;;;;4.50;0.40;;;5.00;99.90;;;;;;4868925;29;20068;-77
2024/02/07 06:00:40;;;;;;;2.78;0.30;;;5.00;99.90;;;;;;4899721;29;20036;-77
2024/02/07 06:03:08;;;;;;;2.28;0.30;;;4.90;99.90;;;;;;4881254;29;20136;-78
2024/02/07 06:05:35;;;;;;;4.03;0.55;;;4.90;99.90;;;;;;4897453;29;20041;-78
2024/02/07 06:08:03;;;;;;;2.28;0.38;;;4.90;99.90;;;;;;4884023;29;20052;-77
2024/02/07 06:10:30;;;;;;;4.75;0.98;;;4.90;99.90;;;;;;4899458;29;20119;-76
2024/02/07 06:12:57;;;;;;;3.50;0.50;;;4.90;99.90;;;;;;4883895;29;20409;-77
2024/02/07 06:15:24;;;;;;;3.28;0.70;;;4.90;99.90;;;;;;4899351;29;20053;-77
2024/02/07 06:17:51;;;;;;;3.15;0.45;;;4.90;99.90;;;;;;4880854;29;20049;-77
2024/02/07 06:20:18;;;;;;;1.48;0.25;;;4.90;99.90;;;;;;4874646;29;20114;-77
2024/02/07 06:22:47;;;;;;;4.22;0.50;;;4.90;99.90;;;;;;4881505;29;20045;-76
2024/02/07 06:25:15;;;;;;;3.55;0.40;;;5.00;99.90;;;;;;4890031;29;20052;-76
2024/02/07 06:27:43;;;;;;;2.95;0.30;;;5.00;99.90;;;;;;4900385;29;20505;-76
2024/02/07 06:30:10;;;;;;;2.17;0.20;;;5.00;99.90;;;;;;4900222;29;20048;-76
2024/02/07 06:32:37;;;;;;;2.38;0.20;;;5.10;99.90;;;;;;4880296;29;20053;-76
2024/02/07 06:35:05;;;;;;;1.75;0.32;;;5.10;99.90;;;;;;4880924;29;20056;-76
2024/02/07 06:37:33;;;;;;;1.77;0.38;;;5.10;99.90;;;;;;4898764;29;20051;-76
2024/02/07 06:40:00;;;;;;;2.70;0.38;;;5.10;99.90;;;;;;4900055;29;20138;-76
2024/02/07 06:42:27;;;;;;;1.10;0.22;;;5.10;99.90;;;;;;4882595;29;20101;-76
2024/02/07 06:44:54;;;;;;;1.65;0.40;;;5.10;99.90;;;;;;4899935;29;20531;-76
2024/02/07 06:47:21;;;;;;;2.53;0.40;;;5.10;99.90;;;;;;4870507;29;20044;-76
2024/02/07 06:49:48;;;;;;;1.60;0.30;;;5.10;99.90;;;;;;4880164;29;20147;-76
2024/02/07 06:52:15;;;;;;;3.13;0.25;;;5.10;99.90;;;;;;4863328;29;20059;-76
2024/02/07 06:54:42;;;;;;;3.55;0.30;;;5.10;99.90;;;;;;4874541;29;20045;-76
2024/02/07 06:57:09;;;;;;;4.78;0.65;;;5.10;99.90;;;;;;4882880;29;20063;-76
2024/02/07 06:59:36;;;;;;;4.10;0.40;;;5.10;99.90;;;;;;4898491;29;20048;-76
2024/02/07 07:02:03;;;;;;;1.25;0.30;;;5.10;99.90;;;;;;4898626;29;20045;-76
2024/02/07 07:04:33;;;;;;;2.78;0.30;;;5.10;99.90;;;;;;4899829;29;20059;-76
2024/02/07 07:07:01;;;;;;;3.40;0.40;;;5.10;99.90;;;;;;4883058;29;20044;-76
2024/02/07 07:09:28;;;;;;;3.72;0.43;;;5.10;99.90;;;;;;4885649;29;20081;-76
2024/02/07 07:11:55;;;;;;;2.00;0.38;;;5.10;99.90;;;;;;4899548;29;20033;-76
2024/02/07 07:14:22;;;;;;;3.10;0.60;;;5.10;99.90;;;;;;4882833;29;20059;-76
2024/02/07 07:16:49;;;;;;;2.50;0.40;;;5.00;99.90;;;;;;4882854;29;20048;-76
2024/02/07 07:19:17;;;;;;;1.33;0.40;;;5.10;99.90;;;;;;4882368;29;20048;-76
2024/02/07 07:21:44;;;;;;;2.10;0.38;;;5.10;99.90;;;;;;4882511;29;20409;-76
2024/02/07 07:24:11;;;;;;;1.70;0.30;;;5.10;99.90;;;;;;4882324;29;20120;-76
2024/02/07 07:26:38;;;;;;;2.42;0.30;;;5.20;99.90;;;;;;4898173;29;20100;-76
2024/02/07 07:29:10;;;;;;;1.13;0.20;;;5.20;99.90;;;;;;4882490;29;20055;-77
2024/02/07 07:31:37;;;;;;;1.88;0.25;;;5.20;99.90;;;;;;4882276;29;20072;-76
2024/02/07 07:34:04;;;;;;;3.28;0.52;;;5.30;99.90;;;;;;4867096;29;20112;-76
2024/02/07 07:36:34;;;;;;;2.80;0.25;;;5.30;99.90;;;;;;4882543;29;20458;-76
2024/02/07 07:39:02;;;;;;;0.73;0.20;;;5.30;99.90;;;;;;4897807;29;20047;-77
2024/02/07 07:41:29;;;;;;;2.53;0.55;;;5.30;99.90;;;;;;4879253;29;20592;-76
2024/02/07 07:44:00;;;;;;;3.40;0.20;;;5.40;99.90;;;;;;4886320;29;20450;-76
2024/02/07 07:46:27;;;;;;;1.38;0.32;;;5.30;99.90;;;;;;4867059;29;20041;-76
2024/02/07 07:48:54;;;;;;;3.95;0.60;;;5.30;99.90;;;;;;4897657;29;20047;-76
2024/02/07 07:51:21;;;;;;;1.23;0.28;;;5.30;99.90;;;;;;4866896;29;20090;-76
2024/02/07 07:53:49;;;;;;;2.47;0.35;;;5.40;99.90;;;;;;4897347;29;20060;-76
2024/02/07 07:56:16;;;;;;;3.13;0.40;;;5.40;99.90;;;;;;4897522;29;20119;-77
2024/02/07 07:58:48;;;;;;;1.33;0.40;;;5.40;99.90;;;;;;4880233;29;20044;-76
2024/02/07 08:01:21;;;;;;;2.45;0.50;;;5.50;99.90;;;;;;4882342;29;20048;-76
2024/02/07 08:03:51;;;;;;;4.18;0.52;;;5.50;99.90;;;;;;4897318;29;20053;-76
2024/02/07 08:06:18;;;;;;;3.00;0.65;;;5.50;99.90;;;;;;4898816;29;20126;-76
2024/02/07 08:08:45;;;;;;;5.30;1.10;;;5.40;99.90;;;;;;4881966;29;20060;-76
2024/02/07 08:11:12;;;;;;;4.25;0.80;;;5.50;99.90;;;;;;4897606;29;20048;-76
2024/02/07 08:13:39;;;;;;;3.83;1.17;;;5.40;99.90;;;;;;4897650;29;20493;-76
2024/02/07 08:16:06;;;;;;;3.97;0.60;;;5.40;99.90;;;;;;4897399;29;20075;-76
2024/02/07 08:18:35;;;;;;;3.28;0.85;;;5.40;99.90;;;;;;4898683;29;20057;-76
2024/02/07 08:21:02;;;;;;;2.75;0.52;;;5.40;99.90;;;;;;4879280;29;20487;-76
2024/02/07 08:23:30;;;;;;;3.28;0.55;;;5.40;99.90;;;;;;4887875;29;20398;-76
2024/02/07 08:25:56;;;;;;;6.25;1.20;;;5.40;99.90;;;;;;4897208;29;20516;-76
2024/02/07 08:28:24;;;;;;;3.25;0.60;;;5.40;99.90;;;;;;4897263;29;20112;-76
2024/02/07 08:30:51;;;;;;;3.47;0.73;;;5.50;99.90;;;;;;4888051;29;20095;-76
2024/02/07 08:33:18;;;;;;;1.70;0.50;;;5.50;99.90;;;;;;4880796;29;20143;-76
2024/02/07 08:35:47;;;;;;;3.15;0.50;;;5.50;99.90;;;;;;4897151;29;20084;-76
2024/02/07 08:38:14;;;;;;;2.50;0.50;;;5.50;99.90;;;;;;4866290;29;20112;-76
2024/02/07 08:40:41;;;;;;;4.68;0.82;;;5.60;99.90;;;;;;4897189;29;20402;-80
2024/02/07 08:43:11;;;;;;;2.03;0.50;;;5.60;99.90;;;;;;4897476;29;20092;-75
2024/02/07 08:45:38;;;;;;;2.85;0.50;;;5.60;99.90;;;;;;4897177;29;20044;-75
2024/02/07 08:48:08;;;;;;;2.25;0.40;;;5.70;99.90;;;;;;4897680;29;20048;-75
2024/02/07 08:50:35;;;;;;;2.65;0.50;;;5.70;99.90;;;;;;4896892;29;20056;-76
2024/02/07 08:53:02;;;;;;;2.95;0.30;;;5.80;99.90;;;;;;4881309;29;20080;-75
2024/02/07 08:55:30;;;;;;;1.92;0.30;;;5.80;99.90;;;;;;4897919;29;20043;-75
2024/02/07 08:57:58;;;;;;;3.03;0.55;;;5.80;99.90;;;;;;4881740;29;20379;-74
2024/02/07 09:00:26;;;;;;;4.15;0.60;;;5.80;99.90;;;;;;4896887;29;20076;-75
2024/02/07 09:02:54;;;;;;;2.88;0.60;;;5.80;99.90;;;;;;4896881;29;20080;-75
2024/02/07 09:05:21;;;;;;;4.55;0.70;;;5.80;99.90;;;;;;4899409;29;20434;-75
2024/02/07 09:07:51;;;;;;;2.25;0.47;;;5.80;99.90;;;;;;4882078;29;20045;-74
2024/02/07 09:10:20;;;;;;;1.80;0.43;;;5.80;99.90;;;;;;4894034;29;20052;-75
2024/02/07 09:12:47;;;;;;;3.58;0.63;;;5.90;99.90;;;;;;4885063;29;20404;-75
2024/02/07 09:15:14;;;;;;;1.30;0.32;;;5.90;99.90;;;;;;4901466;29;20071;-76
2024/02/07 09:17:41;;;;;;;1.75;0.30;;;5.90;99.90;;;;;;4909616;29;20048;-74
2024/02/07 09:20:09;;;;;;;2.15;0.40;;;5.90;99.90;;;;;;4867418;29;20472;-74
2024/02/07 09:22:36;;;;;;;2.67;0.30;;;6.00;99.90;;;;;;4899546;29;20113;-76
2024/02/07 09:25:04;;;;;;;2.47;0.30;;;6.00;99.90;;;;;;4900359;29;20080;-76
2024/02/07 09:27:31;;;;;;;2.03;0.73;;;6.00;99.90;;;;;;4885261;29;20156;-75
2024/02/07 09:30:02;;;;;;;2.50;0.57;;;6.00;99.90;;;;;;4900864;29;20127;-74
2024/02/07 09:32:42;;;;;;;2.75;0.30;;;6.00;99.90;;;;;;4886324;29;20063;-75
2024/02/07 09:35:10;;;;;;;2.30;0.43;;;6.10;99.90;;;;;;4901505;29;20045;-75
2024/02/07 09:37:39;;;;;;;3.50;0.50;;;6.10;99.90;;;;;;4900350;29;20053;-78
2024/02/07 09:40:08;;;;;;;2.55;0.40;;;6.20;99.90;;;;;;4899972;29;20056;-74
2024/02/07 09:42:38;;;;;;;0.85;0.30;;;6.30;99.90;;;;;;4901084;29;20450;-75
2024/02/07 09:45:11;;;;;;;4.00;0.70;;;6.30;99.90;;;;;;4899818;29;20048;-75
2024/02/07 09:47:48;;;;;;;4.10;0.50;;;6.30;99.90;;;;;;4901011;29;20545;-80
2024/02/07 09:50:18;;;;;;;1.10;0.40;;;6.40;99.90;;;;;;4901403;29;20052;-79
2024/02/07 09:52:47;;;;;;;4.13;0.85;;;6.30;99.90;;;;;;4900003;29;20098;-76
2024/02/07 09:55:15;;;;;;;2.13;0.40;;;6.40;99.90;;;;;;4900060;29;20060;-79
2024/02/07 09:57:42;;;;;;;4.05;0.60;;;6.40;99.90;;;;;;4900410;29;21142;-80
2024/02/07 10:00:10;;;;;;;4.63;0.80;;;6.50;99.90;;;;;;4884833;29;20050;-79
2024/02/07 10:02:41;;;;;;;4.70;0.80;;;6.50;99.90;;;;;;4884302;29;20100;-78
2024/02/07 10:05:13;;;;;;;2.33;0.40;;;6.50;99.90;;;;;;4875021;29;20113;-78
2024/02/07 10:07:41;;;;;;;2.17;0.50;;;6.60;99.90;;;;;;4880509;29;20049;-81
2024/02/07 10:10:09;;;;;;;3.95;0.65;;;6.60;99.90;;;;;;4892055;29;20143;-77
2024/02/07 10:12:38;;;;;;;2.63;0.50;;;6.60;99.90;;;;;;4884500;29;20071;-78
2024/02/07 10:15:06;;;;;;;4.45;0.40;;;6.60;99.90;;;;;;4883633;29;20074;-79
2024/02/07 10:17:33;;;;;;;3.97;0.45;;;6.60;99.90;;;;;;4883138;29;20045;-77
2024/02/07 10:20:11;;;;;;;1.23;0.32;;;6.60;99.90;;;;;;4899553;29;20132;-78
2024/02/07 10:22:39;;;;;;;1.08;0.40;;;6.60;99.90;;;;;;4883619;29;20044;-78
2024/02/07 10:25:15;;;;;;;1.70;0.25;;;6.60;99.90;;;;;;4864890;29;20078;-76
2024/02/07 10:27:43;;;;;;;2.90;0.35;;;6.60;99.90;;;;;;4880293;29;20044;-77
2024/02/07 10:30:12;;;;;;;0.95;0.17;;;6.60;99.90;;;;;;4882549;29;20586;-76
2024/02/07 10:32:40;;;;;;;2.67;0.40;;;6.60;99.90;;;;;;4900315;29;20049;-79
2024/02/07 10:35:10;;;;;;;1.15;0.13;;;6.60;99.90;;;;;;4868311;29;20057;-79
2024/02/07 10:37:40;;;;;;;1.45;0.20;;;6.60;99.90;;;;;;4899136;29;20079;-79
2024/02/07 10:40:08;;;;;;;1.70;0.30;;;6.60;99.90;;;;;;4882525;29;20537;-80
2024/02/07 10:42:35;;;;;;;4.05;0.40;;;6.70;99.90;;;;;;4898867;29;20060;-78
2024/02/07 10:45:08;;;;;;;3.35;0.43;;;6.70;99.90;;;;;;4867169;29;20049;-79
2024/02/07 10:47:36;;;;;;;;;;;6.70;99.90;;;;;;4900403;29;20044;-80
2024/02/07 10:50:08;;;;;;;3.90;0.38;;;6.80;99.90;;;;;;4898879;29;19928;-79
2024/02/07 10:52:40;;;;;;;2.72;0.40;;;6.70;99.90;;;;;;4898385;29;20048;-76
2024/02/07 10:55:11;;;;;;;3.40;0.63;;;6.80;99.90;;;;;;4898732;29;20131;-79
2024/02/07 10:57:44;;;;;;;2.30;0.20;;;6.80;99.90;;;;;;4898846;29;20055;-77
2024/02/07 11:00:12;;;;;;;3.05;0.57;;;6.80;99.90;;;;;;4898664;29;20063;-79
2024/02/07 11:02:41;;;;;;;1.52;0.28;;;6.90;99.90;;;;;;4883057;29;20040;-79
2024/02/07 11:05:09;;;;;;;2.58;0.60;;;6.90;99.90;;;;;;4898730;29;20120;-80
2024/02/07 11:07:37;;;;;;;1.98;0.22;;;6.90;99.90;;;;;;4868016;29;20434;-79
2024/02/07 11:10:05;;;;;;;2.13;0.60;;;7.00;99.90;;;;;;4882933;29;20045;-80
2024/02/07 11:12:34;;;;;;;2.75;0.60;;;7.10;99.90;;;;;;4882904;29;20520;-79
2024/02/07 11:15:03;;;;;;;1.42;0.20;;;7.10;99.90;;;;;;4898600;29;20063;-78
2024/02/07 11:17:32;;;;;;;3.30;1.10;;;7.20;99.90;;;;;;4898511;29;20562;-78
2024/02/07 11:20:01;;;;;;;1.42;0.30;;;7.20;99.90;;;;;;4869006;29;20123;-75
2024/02/07 11:22:42;;;;;;;2.80;0.32;;;7.20;99.90;;;;;;4881111;29;20379;-75
2024/02/07 11:25:15;;;;;;;5.10;0.50;;;7.20;99.90;;;;;;4899182;29;20048;-77
2024/02/07 11:27:43;;;;;;;3.03;0.50;;;7.20;99.90;;;;;;4897578;29;20044;-77
2024/02/07 11:30:10;;;;;;;2.42;0.32;;;7.20;99.90;;;;;;4867262;29;20091;-78
2024/02/07 11:32:40;;;;;;;2.00;0.20;;;7.20;99.90;;;;;;4897963;29;20052;-78
2024/02/07 11:35:09;;;;;;;2.17;0.40;;;7.10;99.90;;;;;;4866875;29;20048;-79
2024/02/07 11:37:38;;;;;;;3.47;0.30;;;7.10;99.90;;;;;;4876410;29;20091;-78
2024/02/07 11:40:13;;;;;;;1.05;0.25;;;7.00;99.90;;;;;;4881307;29;20562;-78
2024/02/07 11:42:42;;;;;;;2.00;0.20;;;7.10;99.90;;;;;;4881926;29;20092;-78
2024/02/07 11:45:14;;;;;;;2.70;0.40;;;7.00;99.90;;;;;;4897401;29;20053;-78
2024/02/07 11:47:44;;;;;;;2.30;0.30;;;7.00;99.90;;;;;;4882088;29;20052;-78
2024/02/07 11:50:16;;;;;;;3.83;0.40;;;6.90;99.90;;;;;;4882009;29;20080;-78
2024/02/07 11:52:45;;;;;;;;;;;6.90;99.90;;;;;;4882417;29;20513;-78
2024/02/07 11:55:14;;;;;;;2.10;0.20;;;6.80;99.90;;;;;;4897408;29;19923;-74
2024/02/07 11:57:43;;;;;;;4.72;0.40;;;6.80;99.90;;;;;;4898672;29;20375;-79
2024/02/07 12:00:18;;;;;;;2.88;0.22;;;6.80;99.90;;;;;;4882002;29;20044;-80
2024/02/07 12:02:49;;;;;;;7.25;0.95;;;6.80;99.90;;;;;;4893986;29;20092;-78
2024/02/07 12:05:17;;;;;;;4.88;0.38;;;6.70;99.90;;;;;;4896768;29;20143;-77
2024/02/07 12:07:49;;;;;;;2.85;0.63;;;6.70;99.90;;;;;;4878645;29;20148;-77
2024/02/07 12:10:17;;;;;;;;;;;6.70;99.90;;;;;;4897527;29;20119;-77
2024/02/07 12:12:44;;;;;;;3.75;0.85;;;6.70;99.90;;;;;;4897110;29;19927;-78
2024/02/07 12:15:11;;;;;;;4.80;1.10;;;6.60;99.90;;;;;;4897311;29;20088;-78
2024/02/07 12:17:41;;;;;;;1.58;0.28;;;6.70;99.90;;;;;;4881544;29;20045;-79
2024/02/07 12:20:09;;;;;;;1.88;0.20;;;6.80;99.90;;;;;;4898144;29;20068;-76
2024/02/07 12:22:37;;;;;;;2.42;0.30;;;6.80;99.90;;;;;;4880667;29;20049;-76
2024/02/07 12:25:05;;;;;;;1.10;0.17;;;6.90;99.90;;;;;;4881432;29;20079;-74
2024/02/07 12:27:33;;;;;;;3.78;0.30;;;7.00;99.90;;;;;;4878160;29;20056;-77
2024/02/07 12:30:00;;;;;;;2.05;0.20;;;7.00;99.90;;;;;;4881180;29;20151;-77
2024/02/07 12:32:29;;;;;;;3.55;0.50;;;7.10;99.90;;;;;;4881452;29;20072;-76
2024/02/07 12:34:59;;;;;;;3.08;1.17;;;7.10;99.90;;;;;;4896662;29;20048;-77
2024/02/07 12:37:26;;;;;;;2.88;0.30;;;7.00;99.90;;;;;;4866308;29;20048;-77
2024/02/07 12:39:53;;;;;;;2.30;0.30;;;7.10;99.90;;;;;;4895929;29;20044;-76
2024/02/07 12:42:22;;;;;;;1.65;0.20;;;7.10;99.90;;;;;;4881150;29;20044;-77
2024/02/07 12:44:49;;;;;;;2.60;0.40;;;7.10;99.90;;;;;;4896536;29;20113;-76
2024/02/07 12:47:20;;;;;;;2.35;0.20;;;7.20;99.90;;;;;;4880685;29;20114;-77
2024/02/07 12:49:51;;;;;;;4.28;0.20;;;7.20;99.90;;;;;;4897786;29;20045;-76
2024/02/07 12:52:20;;;;;;;3.13;0.43;;;7.30;99.90;;;;;;4896645;29;20456;-76
2024/02/07 12:54:50;;;;;;;2.50;0.40;;;7.30;99.90;;;;;;4896703;29;20409;-82
2024/02/07 12:57:20;;;;;;;3.20;0.30;;;7.30;99.90;;;;;;4897223;29;20056;-82
2024/02/07 12:59:47;;;;;;;2.05;0.20;;;7.40;99.90;;;;;;4881880;29;20493;-80
2024/02/07 13:02:15;;;;;;;3.40;0.20;;;7.30;99.90;;;;;;4883793;29;20045;-82
2024/02/07 13:04:43;;;;;;;1.35;0.13;;;7.40;99.90;;;;;;4898194;29;20045;-82
2024/02/07 13:07:11;;;;;;;1.05;0.20;;;7.30;99.90;;;;;;4906084;29;20072;-81
2024/02/07 13:09:45;;;;;;;2.60;0.55;;;7.30;99.90;;;;;;4899417;29;20048;-83
2024/02/07 13:12:12;;;;;;;1.08;0.20;;;7.30;99.90;;;;;;4897426;29;20552;-83
2024/02/07 13:14:53;;;;;;;1.92;0.52;;;7.30;99.90;;;;;;4897364;29;20060;-80
2024/02/07 13:17:20;;;;;;;1.15;0.17;;;7.30;99.90;;;;;;4897090;29;20458;-82
2024/02/07 13:19:47;;;;;;;2.38;0.20;;;7.30;99.90;;;;;;4881380;29;20052;-82
2024/02/07 13:22:15;;;;;;;3.30;0.10;;;7.30;99.90;;;;;;4878503;29;20061;-86
2024/02/07 13:24:42;;;;;;;2.00;0.17;;;7.40;99.90;;;;;;4897533;29;20112;-85
2024/02/07 13:27:09;;;;;;;1.88;0.40;;;7.40;99.90;;;;;;4882217;29;20044;-82
2024/02/07 13:29:39;;;;;;;0.95;0.10;;;7.50;99.90;;;;;;4882223;29;20573;-81
2024/02/07 13:32:12;;;;;;;4.03;0.43;;;7.60;99.90;;;;;;4897194;29;20159;-82
2024/02/07 13:34:42;;;;;;;2.33;0.30;;;7.70;99.90;;;;;;4866894;29;20075;-80
2024/02/07 13:37:10;;;;;;;1.30;0.20;;;7.70;99.90;;;;;;4884498;29;20083;-80
2024/02/07 13:39:37;;;;;;;1.27;0.20;;;7.80;99.90;;;;;;4897126;29;20096;-82
2024/02/07 13:42:04;;;;;;;1.25;0.20;;;7.90;99.90;;;;;;4878184;29;20402;-82
2024/02/07 13:44:32;;;;;;;3.22;0.25;;;8.00;99.90;;;;;;4866298;29;20052;-82
2024/02/07 13:47:01;;;;;;;3.38;0.10;;;8.00;99.90;;;;;;4896584;29;20080;-81
2024/02/07 13:49:29;;;;;;;2.60;0.20;;;8.10;99.90;;;;;;4882146;29;20405;-90
2024/02/07 13:51:57;;;;;;;3.10;0.20;;;8.10;99.90;;;;;;4884097;29;20540;-81
2024/02/07 13:54:24;;;;;;;4.45;0.57;;;8.20;99.90;;;;;;4884328;29;20060;-80
2024/02/07 13:56:51;;;;;;;3.15;0.10;;;8.20;99.90;;;;;;4884429;29;20048;-80
2024/02/07 13:59:18;;;;;;;1.55;0.43;;;8.20;99.90;;;;;;4884868;29;20044;-82
2024/02/07 14:01:45;;;;;;;2.78;0.20;;;8.20;99.90;;;;;;4900069;29;20048;-81
2024/02/07 14:04:12;;;;;;;0.63;0.17;;;8.10;99.90;;;;;;4901790;29;20519;-82
2024/02/07 14:06:39;;;;;;;4.30;0.43;;;8.10;99.90;;;;;;4880367;29;20053;-84
2024/02/07 14:09:07;;;;;;;0.70;0.20;;;8.10;99.90;;;;;;4884488;29;20056;-81
2024/02/07 14:11:40;;;;;;;1.13;0.20;;;8.10;99.90;;;;;;4901265;29;20045;-82
2024/02/07 14:14:11;;;;;;;3.15;0.28;;;8.10;99.90;;;;;;4884444;29;20037;-84